createdAt,value
2018-03-30T00:05:07.982Z,3.61
2018-03-30T00:10:58.746Z,3.54
2018-03-30T00:16:49.592Z,3.22
2018-03-30T00:22:40.393Z,3.94
2018-03-30T00:28:31.271Z,3.43
2018-03-30T00:34:22.056Z,3.43
2018-03-30T00:40:12.897Z,3.91
2018-03-30T00:46:03.716Z,3.84
2018-03-30T00:51:54.540Z,3.54
2018-03-30T00:57:45.399Z,3.6
2018-03-30T01:03:36.139Z,3.56
2018-03-30T01:09:26.984Z,4.4
2018-03-30T01:15:17.798Z,4.06
2018-03-30T01:21:08.581Z,4
2018-03-30T01:26:59.443Z,4.02
2018-03-30T01:32:50.263Z,3.78
2018-03-30T01:38:41.104Z,3.79
2018-03-30T01:44:31.896Z,4.1
2018-03-30T01:50:22.710Z,4.15
2018-03-30T01:56:13.497Z,4.32
2018-03-30T02:02:04.324Z,4.46
2018-03-30T02:07:55.199Z,4.56
2018-03-30T02:13:45.973Z,5.19
2018-03-30T02:19:36.791Z,3.83
2018-03-30T02:25:27.637Z,4.46
2018-03-30T02:31:18.404Z,4.51
2018-03-30T02:37:09.252Z,4.5
2018-03-30T02:43:00.062Z,5.18
2018-03-30T02:48:50.863Z,4.74
2018-03-30T02:54:41.731Z,5.11
2018-03-30T03:00:32.547Z,5.27
2018-03-30T03:06:23.337Z,5.55
2018-03-30T03:12:14.130Z,5.36
2018-03-30T03:18:05.015Z,6.14
2018-03-30T03:23:55.796Z,6.3
2018-03-30T03:29:46.555Z,6.65
2018-03-30T03:35:37.397Z,6.29
2018-03-30T03:41:28.235Z,7.35
2018-03-30T03:47:19.054Z,6.93
2018-03-30T03:53:09.959Z,5.81
2018-03-30T03:59:00.647Z,6.84
2018-03-30T04:04:51.477Z,6.98
2018-03-30T04:10:42.258Z,6.55
2018-03-30T04:16:33.105Z,6.93
2018-03-30T04:22:23.902Z,6.87
2018-03-30T04:28:14.694Z,6.96
2018-03-30T04:34:05.571Z,6.61
2018-03-30T04:39:56.334Z,6.78
2018-03-30T04:45:47.120Z,6.71
2018-03-30T04:51:37.961Z,6.59
2018-03-30T04:57:28.788Z,7.68
2018-03-30T05:03:19.603Z,7.11
2018-03-30T05:09:10.435Z,7.56
2018-03-30T05:15:01.219Z,7.32
2018-03-30T05:20:52.114Z,7.7
2018-03-30T05:26:42.872Z,7.61
2018-03-30T05:32:33.621Z,8.26
2018-03-30T05:38:24.464Z,7.76
2018-03-30T05:44:15.266Z,6.69
2018-03-30T05:50:06.112Z,6.91
2018-03-30T05:55:56.898Z,6.19
2018-03-30T06:01:47.678Z,5.6
2018-03-30T06:07:38.492Z,6.09
2018-03-30T06:13:29.358Z,6.66
2018-03-30T06:19:20.132Z,7.65
2018-03-30T06:25:10.979Z,6.31
2018-03-30T06:31:01.718Z,7.91
2018-03-30T06:36:52.578Z,8.19
2018-03-30T06:42:43.364Z,8.68
2018-03-30T06:48:34.160Z,8.29
2018-03-30T06:54:25.025Z,6.21
2018-03-30T07:00:15.827Z,7.57
2018-03-30T07:06:06.697Z,7.75
2018-03-30T07:11:57.458Z,9.11
2018-03-30T07:17:48.265Z,8.1
2018-03-30T07:23:39.125Z,8.18
2018-03-30T07:29:29.987Z,8.14
2018-03-30T07:35:20.753Z,9.86
2018-03-30T07:41:11.540Z,8.52
2018-03-30T07:47:02.343Z,8.77
2018-03-30T07:52:53.194Z,7.22
2018-03-30T07:58:43.991Z,7.66
2018-03-30T08:04:34.849Z,8.61
2018-03-30T08:10:25.675Z,8.5
2018-03-30T08:16:16.494Z,8.55
2018-03-30T08:22:07.328Z,8.14
2018-03-30T08:27:58.131Z,7.69
2018-03-30T08:33:49.000Z,6.87
2018-03-30T08:39:39.778Z,7.88
2018-03-30T08:45:30.650Z,6.99
2018-03-30T08:51:21.465Z,7.42
2018-03-30T08:57:12.353Z,7.45
2018-03-30T09:03:03.282Z,6.76
2018-03-30T09:08:54.039Z,6.7
2018-03-30T09:14:44.912Z,6.4
2018-03-30T09:20:35.812Z,7.14
2018-03-30T09:26:26.660Z,6.21
2018-03-30T09:32:17.582Z,6.22
2018-03-30T09:38:08.428Z,5.58
2018-03-30T09:43:59.306Z,5.24
2018-03-30T09:49:50.191Z,5.78
2018-03-30T09:55:41.105Z,5.56
2018-03-30T10:01:31.986Z,5
2018-03-30T10:07:22.839Z,4.87
2018-03-30T10:13:13.796Z,5.35
2018-03-30T10:19:04.598Z,5.03
2018-03-30T10:24:55.492Z,5.58
2018-03-30T10:30:46.367Z,5.07
2018-03-30T10:36:37.219Z,4.76
2018-03-30T10:42:28.173Z,4.95
2018-03-30T10:48:18.990Z,5.01
2018-03-30T10:54:09.823Z,5.04
2018-03-30T11:00:00.696Z,5.59
2018-03-30T11:05:51.577Z,5.85
2018-03-30T11:11:42.419Z,5.39
2018-03-30T11:17:33.281Z,4.88
2018-03-30T11:23:24.099Z,5.75
2018-03-30T11:29:15.000Z,5.79
2018-03-30T11:35:05.883Z,5.43
2018-03-30T11:40:56.727Z,4.04
2018-03-30T11:46:47.545Z,4.99
2018-03-30T11:52:38.432Z,3.45
2018-03-30T11:58:29.289Z,4.36
2018-03-30T12:04:20.223Z,4.37
2018-03-30T12:10:10.991Z,3.74
2018-03-30T12:16:01.898Z,2.7
2018-03-30T12:21:52.705Z,3.52
2018-03-30T12:27:43.583Z,3.9
2018-03-30T12:33:34.523Z,3.76
2018-03-30T12:39:25.349Z,3.71
2018-03-30T12:45:16.215Z,4.34
2018-03-30T12:51:06.994Z,5.16
2018-03-30T12:56:57.897Z,3.37
2018-03-30T13:02:48.749Z,4.41
2018-03-30T13:08:39.604Z,3.28
2018-03-30T13:14:30.486Z,4.74
2018-03-30T13:20:21.318Z,3.96
2018-03-30T13:26:12.152Z,5.57
2018-03-30T13:32:02.982Z,5.32
2018-03-30T13:37:53.905Z,4.26
2018-03-30T13:43:44.731Z,3.64
2018-03-30T13:49:35.656Z,3.45
2018-03-30T13:55:26.490Z,3.6
2018-03-30T14:01:17.352Z,3.2
2018-03-30T14:07:08.210Z,3.86
2018-03-30T14:12:59.084Z,3.34
2018-03-30T14:18:49.940Z,2.86
2018-03-30T14:24:40.941Z,3.47
2018-03-30T14:30:31.682Z,3.02
2018-03-30T14:36:22.598Z,3.6
2018-03-30T14:42:13.408Z,3.02
2018-03-30T14:48:04.235Z,3.07
2018-03-30T14:53:55.113Z,2.75
2018-03-30T14:59:46.017Z,2.88
2018-03-30T15:05:36.873Z,2.51
2018-03-30T15:11:27.707Z,3.79
2018-03-30T15:17:18.567Z,3.38
2018-03-30T15:23:09.530Z,3.22
2018-03-30T15:29:00.268Z,2.37
2018-03-30T15:34:51.175Z,2.72
2018-03-30T15:40:42.032Z,3.48
2018-03-30T15:46:32.882Z,3.51
2018-03-30T15:52:23.687Z,3.01
2018-03-30T15:58:14.575Z,3.84
2018-03-30T16:04:05.403Z,3.47
2018-03-30T16:09:56.293Z,3.34
2018-03-30T16:15:47.149Z,3.59
2018-03-30T16:21:38.006Z,3.72
2018-03-30T16:27:28.866Z,4.49
2018-03-30T16:33:19.693Z,8.4
2018-03-30T16:39:10.537Z,3.97
2018-03-30T16:45:01.439Z,3.7
2018-03-30T16:50:52.357Z,4.27
2018-03-30T16:56:43.123Z,8.74
2018-03-30T17:02:33.960Z,4.74
2018-03-30T17:08:24.810Z,6.55
2018-03-30T17:14:15.646Z,4.36
2018-03-30T17:20:06.543Z,4.29
2018-03-30T17:25:57.402Z,4.29
2018-03-30T17:31:48.207Z,5.1
2018-03-30T17:37:39.036Z,4.01
2018-03-30T17:43:29.945Z,3.94
2018-03-30T17:49:20.744Z,4.82
2018-03-30T17:55:11.568Z,4.52
2018-03-30T18:01:02.449Z,3.62
2018-03-30T18:06:53.259Z,3.6
2018-03-30T18:12:44.127Z,4.24
2018-03-30T18:18:34.938Z,5.15
2018-03-30T18:24:25.780Z,5.29
2018-03-30T18:30:16.714Z,3.98
2018-03-30T18:36:07.451Z,3.46
2018-03-30T18:41:58.287Z,5
2018-03-30T18:47:49.139Z,5.89
2018-03-30T18:53:39.959Z,10.42
2018-03-30T18:59:30.832Z,11.24
2018-03-30T19:05:21.643Z,5.99
2018-03-30T19:11:12.484Z,3.89
2018-03-30T19:17:03.327Z,3.46
2018-03-30T19:22:54.172Z,3.32
2018-03-30T19:28:44.987Z,5.03
2018-03-30T19:34:35.809Z,5.82
2018-03-30T19:40:26.648Z,5.39
2018-03-30T19:46:17.507Z,3.9
2018-03-30T19:52:08.343Z,4.18
2018-03-30T19:57:59.167Z,4.34
2018-03-30T20:03:50.031Z,4.14
2018-03-30T20:09:40.804Z,4.46
2018-03-30T20:15:31.683Z,2.18
2018-03-30T20:21:22.507Z,2.67
2018-03-30T20:27:13.296Z,2.2
2018-03-30T20:33:04.153Z,2.05
2018-03-30T20:38:54.965Z,2.13
2018-03-30T20:44:45.798Z,2.05
2018-03-30T20:50:36.648Z,2.28
2018-03-30T20:56:27.437Z,2.35
2018-03-30T21:02:18.348Z,1.93
2018-03-30T21:08:09.137Z,2.24
2018-03-30T21:13:59.947Z,2.31
2018-03-30T21:19:50.735Z,1.35
2018-03-30T21:25:41.614Z,1.67
2018-03-30T21:31:32.411Z,1.68
2018-03-30T21:37:23.228Z,2.11
2018-03-30T21:43:14.115Z,2.22
2018-03-30T21:49:04.865Z,2.16
2018-03-30T21:54:55.745Z,2.13
2018-03-30T22:00:46.572Z,1.82
2018-03-30T22:06:37.369Z,4.97
2018-03-30T22:12:28.180Z,2.29
2018-03-30T22:18:19.059Z,2.05
2018-03-30T22:24:09.846Z,1.86
2018-03-30T22:30:00.682Z,2.3
2018-03-30T22:35:51.497Z,1.96
2018-03-30T22:41:42.388Z,2.11
2018-03-30T22:47:33.204Z,1.95
2018-03-30T22:53:23.978Z,2.21
2018-03-30T22:59:14.785Z,2.02
2018-03-30T23:05:05.669Z,1.88
2018-03-30T23:10:56.501Z,2.42
2018-03-30T23:16:47.250Z,2.2
2018-03-30T23:22:38.106Z,2.6
2018-03-30T23:28:28.920Z,2.83
2018-03-30T23:34:19.730Z,2.65
2018-03-30T23:40:10.555Z,2.6
2018-03-30T23:46:01.403Z,2.54
2018-03-30T23:51:52.290Z,2.54
2018-03-30T23:57:43.018Z,2.61
